sensor_id;sensor_type;location;lat;lon;timestamp;temperature;humidity
43183;DHT22;28802;38.578;-0.066;2023-04-03T00:01:16;13.30;99.90
43183;DHT22;28802;38.578;-0.066;2023-04-03T00:03:42;13.50;99.90
43183;DHT22;28802;38.578;-0.066;2023-04-03T00:06:09;13.40;99.90
43183;DHT22;28802;38.578;-0.066;2023-04-03T00:08:36;13.30;99.90
43183;DHT22;28802;38.578;-0.066;2023-04-03T00:11:03;13.20;99.90
43183;DHT22;28802;38.578;-0.066;2023-04-03T00:13:30;13.20;99.90
43183;DHT22;28802;38.578;-0.066;2023-04-03T00:15:56;13.30;99.90
43183;DHT22;28802;38.578;-0.066;2023-04-03T00:18:22;13.50;99.90
43183;DHT22;28802;38.578;-0.066;2023-04-03T00:20:49;13.40;99.90
43183;DHT22;28802;38.578;-0.066;2023-04-03T00:23:15;13.50;99.90
43183;DHT22;28802;38.578;-0.066;2023-04-03T00:25:42;13.70;99.90
43183;DHT22;28802;38.578;-0.066;2023-04-03T00:28:08;13.70;99.90
43183;DHT22;28802;38.578;-0.066;2023-04-03T00:30:34;13.70;99.90
43183;DHT22;28802;38.578;-0.066;2023-04-03T00:33:00;13.70;99.90
43183;DHT22;28802;38.578;-0.066;2023-04-03T00:35:26;13.70;99.90
43183;DHT22;28802;38.578;-0.066;2023-04-03T00:37:54;13.70;99.90
43183;DHT22;28802;38.578;-0.066;2023-04-03T00:40:23;13.70;99.90
43183;DHT22;28802;38.578;-0.066;2023-04-03T00:42:55;13.90;99.90
43183;DHT22;28802;38.578;-0.066;2023-04-03T00:47:53;14.00;99.90
43183;DHT22;28802;38.578;-0.066;2023-04-03T00:50:20;14.10;99.90
43183;DHT22;28802;38.578;-0.066;2023-04-03T00:52:46;14.20;99.90
43183;DHT22;28802;38.578;-0.066;2023-04-03T00:55:15;14.00;99.90
43183;DHT22;28802;38.578;-0.066;2023-04-03T00:57:42;14.10;99.90
43183;DHT22;28802;38.578;-0.066;2023-04-03T01:00:11;14.10;99.90
43183;DHT22;28802;38.578;-0.066;2023-04-03T01:02:38;13.80;99.90
43183;DHT22;28802;38.578;-0.066;2023-04-03T01:05:08;13.80;99.90
43183;DHT22;28802;38.578;-0.066;2023-04-03T01:07:36;13.70;99.90
43183;DHT22;28802;38.578;-0.066;2023-04-03T01:10:10;13.60;99.90
43183;DHT22;28802;38.578;-0.066;2023-04-03T01:12:38;13.40;99.90
43183;DHT22;28802;38.578;-0.066;2023-04-03T01:15:11;13.30;99.90
43183;DHT22;28802;38.578;-0.066;2023-04-03T01:17:51;13.50;99.90
43183;DHT22;28802;38.578;-0.066;2023-04-03T01:25:37;14.00;99.90
43183;DHT22;28802;38.578;-0.066;2023-04-03T01:28:05;13.90;99.90
43183;DHT22;28802;38.578;-0.066;2023-04-03T01:30:35;13.90;99.90
43183;DHT22;28802;38.578;-0.066;2023-04-03T01:33:02;13.80;99.90
43183;DHT22;28802;38.578;-0.066;2023-04-03T01:35:28;13.60;99.90
43183;DHT22;28802;38.578;-0.066;2023-04-03T01:37:55;13.50;99.90
43183;DHT22;28802;38.578;-0.066;2023-04-03T01:40:20;13.70;99.90
43183;DHT22;28802;38.578;-0.066;2023-04-03T01:42:46;13.90;99.90
43183;DHT22;28802;38.578;-0.066;2023-04-03T01:45:12;13.80;99.90
43183;DHT22;28802;38.578;-0.066;2023-04-03T01:47:38;13.80;99.90
43183;DHT22;28802;38.578;-0.066;2023-04-03T01:50:05;13.80;99.90
43183;DHT22;28802;38.578;-0.066;2023-04-03T01:52:33;13.80;99.90
43183;DHT22;28802;38.578;-0.066;2023-04-03T01:54:59;13.60;99.90
43183;DHT22;28802;38.578;-0.066;2023-04-03T01:57:25;13.60;99.90
43183;DHT22;28802;38.578;-0.066;2023-04-03T01:59:51;13.40;99.90
43183;DHT22;28802;38.578;-0.066;2023-04-03T02:02:17;13.30;99.90
43183;DHT22;28802;38.578;-0.066;2023-04-03T02:04:46;13.40;99.90
43183;DHT22;28802;38.578;-0.066;2023-04-03T02:07:12;13.50;99.90
43183;DHT22;28802;38.578;-0.066;2023-04-03T02:09:38;13.50;99.90
43183;DHT22;28802;38.578;-0.066;2023-04-03T02:12:04;13.60;99.90
43183;DHT22;28802;38.578;-0.066;2023-04-03T02:14:30;13.60;99.90
43183;DHT22;28802;38.578;-0.066;2023-04-03T02:16:56;13.50;99.90
43183;DHT22;28802;38.578;-0.066;2023-04-03T02:19:22;13.50;99.90
43183;DHT22;28802;38.578;-0.066;2023-04-03T02:21:48;13.50;99.90
43183;DHT22;28802;38.578;-0.066;2023-04-03T02:24:15;13.60;99.90
43183;DHT22;28802;38.578;-0.066;2023-04-03T02:26:40;13.50;99.90
43183;DHT22;28802;38.578;-0.066;2023-04-03T02:29:06;13.60;99.90
43183;DHT22;28802;38.578;-0.066;2023-04-03T02:31:34;13.60;99.90
43183;DHT22;28802;38.578;-0.066;2023-04-03T02:34:01;13.50;99.90
43183;DHT22;28802;38.578;-0.066;2023-04-03T02:36:27;13.50;99.90
43183;DHT22;28802;38.578;-0.066;2023-04-03T02:38:57;13.50;99.90
43183;DHT22;28802;38.578;-0.066;2023-04-03T02:41:23;13.60;99.90
43183;DHT22;28802;38.578;-0.066;2023-04-03T02:43:51;13.70;99.90
43183;DHT22;28802;38.578;-0.066;2023-04-03T02:46:17;13.70;99.90
43183;DHT22;28802;38.578;-0.066;2023-04-03T02:48:43;13.80;99.90
43183;DHT22;28802;38.578;-0.066;2023-04-03T02:51:09;13.90;99.90
43183;DHT22;28802;38.578;-0.066;2023-04-03T02:53:35;14.00;99.90
43183;DHT22;28802;38.578;-0.066;2023-04-03T02:56:08;14.30;99.90
43183;DHT22;28802;38.578;-0.066;2023-04-03T02:58:34;14.40;99.90
43183;DHT22;28802;38.578;-0.066;2023-04-03T03:01:02;14.40;99.90
43183;DHT22;28802;38.578;-0.066;2023-04-03T03:03:28;14.40;99.90
43183;DHT22;28802;38.578;-0.066;2023-04-03T03:06:11;14.30;99.90
43183;DHT22;28802;38.578;-0.066;2023-04-03T03:08:39;14.30;99.90
43183;DHT22;28802;38.578;-0.066;2023-04-03T03:11:06;14.30;99.90
43183;DHT22;28802;38.578;-0.066;2023-04-03T03:13:32;14.40;99.90
43183;DHT22;28802;38.578;-0.066;2023-04-03T03:15:59;14.40;99.90
43183;DHT22;28802;38.578;-0.066;2023-04-03T03:18:25;14.50;99.90
43183;DHT22;28802;38.578;-0.066;2023-04-03T03:20:53;14.50;99.90
43183;DHT22;28802;38.578;-0.066;2023-04-03T03:23:20;14.50;99.90
43183;DHT22;28802;38.578;-0.066;2023-04-03T03:25:46;14.50;99.90
43183;DHT22;28802;38.578;-0.066;2023-04-03T03:28:12;14.50;99.90
43183;DHT22;28802;38.578;-0.066;2023-04-03T03:30:38;14.60;99.90
43183;DHT22;28802;38.578;-0.066;2023-04-03T03:33:04;14.50;99.90
43183;DHT22;28802;38.578;-0.066;2023-04-03T03:35:30;14.60;99.90
43183;DHT22;28802;38.578;-0.066;2023-04-03T03:37:56;14.70;99.90
43183;DHT22;28802;38.578;-0.066;2023-04-03T03:40:22;14.70;99.90
43183;DHT22;28802;38.578;-0.066;2023-04-03T03:42:48;14.70;99.90
43183;DHT22;28802;38.578;-0.066;2023-04-03T03:45:14;14.60;99.90
43183;DHT22;28802;38.578;-0.066;2023-04-03T03:47:41;14.60;99.90
43183;DHT22;28802;38.578;-0.066;2023-04-03T03:50:08;14.50;99.90
43183;DHT22;28802;38.578;-0.066;2023-04-03T03:52:35;14.50;99.90
43183;DHT22;28802;38.578;-0.066;2023-04-03T03:55:01;14.60;99.90
43183;DHT22;28802;38.578;-0.066;2023-04-03T03:57:27;14.40;99.90
43183;DHT22;28802;38.578;-0.066;2023-04-03T03:59:54;14.40;99.90
43183;DHT22;28802;38.578;-0.066;2023-04-03T04:02:21;14.30;99.90
43183;DHT22;28802;38.578;-0.066;2023-04-03T04:04:47;14.30;99.90
43183;DHT22;28802;38.578;-0.066;2023-04-03T04:07:13;14.30;99.90
43183;DHT22;28802;38.578;-0.066;2023-04-03T04:09:42;14.20;99.90
43183;DHT22;28802;38.578;-0.066;2023-04-03T04:12:08;14.20;99.90
43183;DHT22;28802;38.578;-0.066;2023-04-03T04:14:36;14.20;99.90
43183;DHT22;28802;38.578;-0.066;2023-04-03T04:17:03;14.20;99.90
43183;DHT22;28802;38.578;-0.066;2023-04-03T04:19:29;14.30;99.90
43183;DHT22;28802;38.578;-0.066;2023-04-03T04:21:55;14.30;99.90
43183;DHT22;28802;38.578;-0.066;2023-04-03T04:24:22;14.30;99.90
43183;DHT22;28802;38.578;-0.066;2023-04-03T04:26:51;14.30;99.90
43183;DHT22;28802;38.578;-0.066;2023-04-03T04:29:17;14.40;99.90
43183;DHT22;28802;38.578;-0.066;2023-04-03T04:31:46;14.30;99.90
43183;DHT22;28802;38.578;-0.066;2023-04-03T04:34:12;14.30;99.90
43183;DHT22;28802;38.578;-0.066;2023-04-03T04:36:39;14.30;99.90
43183;DHT22;28802;38.578;-0.066;2023-04-03T04:39:06;14.20;99.90
43183;DHT22;28802;38.578;-0.066;2023-04-03T04:41:32;14.10;99.90
43183;DHT22;28802;38.578;-0.066;2023-04-03T04:44:00;14.10;99.90
43183;DHT22;28802;38.578;-0.066;2023-04-03T04:46:26;14.00;99.90
43183;DHT22;28802;38.578;-0.066;2023-04-03T04:48:56;14.00;99.90
43183;DHT22;28802;38.578;-0.066;2023-04-03T04:51:24;14.00;99.90
43183;DHT22;28802;38.578;-0.066;2023-04-03T04:53:50;14.00;99.90
43183;DHT22;28802;38.578;-0.066;2023-04-03T04:56:18;14.10;99.90
43183;DHT22;28802;38.578;-0.066;2023-04-03T04:58:45;14.10;99.90
43183;DHT22;28802;38.578;-0.066;2023-04-03T05:01:12;14.00;99.90
43183;DHT22;28802;38.578;-0.066;2023-04-03T05:03:49;14.00;99.90
43183;DHT22;28802;38.578;-0.066;2023-04-03T05:06:17;14.10;99.90
43183;DHT22;28802;38.578;-0.066;2023-04-03T05:08:44;14.00;99.90
43183;DHT22;28802;38.578;-0.066;2023-04-03T05:11:10;13.90;99.90
43183;DHT22;28802;38.578;-0.066;2023-04-03T05:13:37;14.00;99.90
43183;DHT22;28802;38.578;-0.066;2023-04-03T05:16:04;13.90;99.90
43183;DHT22;28802;38.578;-0.066;2023-04-03T05:18:31;13.80;99.90
43183;DHT22;28802;38.578;-0.066;2023-04-03T05:21:01;13.80;99.90
43183;DHT22;28802;38.578;-0.066;2023-04-03T05:23:27;13.80;99.90
43183;DHT22;28802;38.578;-0.066;2023-04-03T05:25:53;13.80;99.90
43183;DHT22;28802;38.578;-0.066;2023-04-03T05:28:20;13.70;99.90
43183;DHT22;28802;38.578;-0.066;2023-04-03T05:30:53;13.60;99.90
43183;DHT22;28802;38.578;-0.066;2023-04-03T05:33:20;13.40;99.90
43183;DHT22;28802;38.578;-0.066;2023-04-03T05:35:50;13.40;99.90
43183;DHT22;28802;38.578;-0.066;2023-04-03T05:38:22;13.50;99.90
43183;DHT22;28802;38.578;-0.066;2023-04-03T05:40:49;13.50;99.90
43183;DHT22;28802;38.578;-0.066;2023-04-03T05:43:15;13.50;99.90
43183;DHT22;28802;38.578;-0.066;2023-04-03T05:45:43;13.50;99.90
43183;DHT22;28802;38.578;-0.066;2023-04-03T05:48:09;13.50;99.90
43183;DHT22;28802;38.578;-0.066;2023-04-03T05:50:36;13.60;99.90
43183;DHT22;28802;38.578;-0.066;2023-04-03T05:53:21;13.70;99.90
43183;DHT22;28802;38.578;-0.066;2023-04-03T05:55:48;13.90;99.90
43183;DHT22;28802;38.578;-0.066;2023-04-03T05:58:14;14.00;99.90
43183;DHT22;28802;38.578;-0.066;2023-04-03T06:00:42;14.20;99.90
43183;DHT22;28802;38.578;-0.066;2023-04-03T06:03:08;14.70;99.90
43183;DHT22;28802;38.578;-0.066;2023-04-03T06:05:34;15.30;99.90
43183;DHT22;28802;38.578;-0.066;2023-04-03T06:08:00;15.80;99.90
43183;DHT22;28802;38.578;-0.066;2023-04-03T06:10:26;16.40;99.90
43183;DHT22;28802;38.578;-0.066;2023-04-03T06:12:52;16.90;99.90
43183;DHT22;28802;38.578;-0.066;2023-04-03T06:15:18;17.20;99.90
43183;DHT22;28802;38.578;-0.066;2023-04-03T06:17:45;17.60;99.90
43183;DHT22;28802;38.578;-0.066;2023-04-03T06:20:12;18.00;99.90
43183;DHT22;28802;38.578;-0.066;2023-04-03T06:22:39;18.10;99.90
43183;DHT22;28802;38.578;-0.066;2023-04-03T06:25:08;18.10;99.90
43183;DHT22;28802;38.578;-0.066;2023-04-03T06:27:34;18.40;99.90
43183;DHT22;28802;38.578;-0.066;2023-04-03T06:30:00;18.70;99.90
43183;DHT22;28802;38.578;-0.066;2023-04-03T06:32:26;18.90;99.90
43183;DHT22;28802;38.578;-0.066;2023-04-03T06:34:52;19.00;99.90
43183;DHT22;28802;38.578;-0.066;2023-04-03T06:37:21;19.60;99.90
43183;DHT22;28802;38.578;-0.066;2023-04-03T06:39:47;20.00;98.40
43183;DHT22;28802;38.578;-0.066;2023-04-03T06:42:13;20.20;97.10
43183;DHT22;28802;38.578;-0.066;2023-04-03T06:44:47;20.20;96.30
43183;DHT22;28802;38.578;-0.066;2023-04-03T06:47:15;20.10;96.60
43183;DHT22;28802;38.578;-0.066;2023-04-03T06:49:50;20.50;95.50
43183;DHT22;28802;38.578;-0.066;2023-04-03T06:52:16;20.50;94.70
43183;DHT22;28802;38.578;-0.066;2023-04-03T06:54:43;20.80;94.80
43183;DHT22;28802;38.578;-0.066;2023-04-03T06:57:09;20.80;94.00
43183;DHT22;28802;38.578;-0.066;2023-04-03T06:59:35;20.80;94.00
43183;DHT22;28802;38.578;-0.066;2023-04-03T07:02:02;21.20;92.60
43183;DHT22;28802;38.578;-0.066;2023-04-03T07:04:28;21.40;92.20
43183;DHT22;28802;38.578;-0.066;2023-04-03T07:06:54;21.80;92.00
43183;DHT22;28802;38.578;-0.066;2023-04-03T07:09:20;22.10;90.70
43183;DHT22;28802;38.578;-0.066;2023-04-03T07:11:47;22.00;89.80
43183;DHT22;28802;38.578;-0.066;2023-04-03T07:14:13;22.40;89.20
43183;DHT22;28802;38.578;-0.066;2023-04-03T07:16:39;22.80;87.00
43183;DHT22;28802;38.578;-0.066;2023-04-03T07:19:05;23.10;84.50
43183;DHT22;28802;38.578;-0.066;2023-04-03T07:21:30;23.10;84.40
43183;DHT22;28802;38.578;-0.066;2023-04-03T07:23:57;23.50;82.80
43183;DHT22;28802;38.578;-0.066;2023-04-03T07:26:23;23.40;84.30
43183;DHT22;28802;38.578;-0.066;2023-04-03T07:28:49;23.60;80.80
43183;DHT22;28802;38.578;-0.066;2023-04-03T07:31:16;24.30;79.40
43183;DHT22;28802;38.578;-0.066;2023-04-03T07:33:43;24.20;78.50
43183;DHT22;28802;38.578;-0.066;2023-04-03T07:36:15;24.30;77.70
43183;DHT22;28802;38.578;-0.066;2023-04-03T07:38:42;24.40;77.10
43183;DHT22;28802;38.578;-0.066;2023-04-03T07:41:13;24.80;76.00
43183;DHT22;28802;38.578;-0.066;2023-04-03T07:43:39;24.30;72.50
43183;DHT22;28802;38.578;-0.066;2023-04-03T07:46:06;24.40;72.50
43183;DHT22;28802;38.578;-0.066;2023-04-03T07:48:32;24.30;72.40
43183;DHT22;28802;38.578;-0.066;2023-04-03T07:51:03;24.80;72.40
43183;DHT22;28802;38.578;-0.066;2023-04-03T07:53:30;24.70;71.10
43183;DHT22;28802;38.578;-0.066;2023-04-03T07:55:58;24.40;69.50
43183;DHT22;28802;38.578;-0.066;2023-04-03T07:58:24;24.70;70.20
43183;DHT22;28802;38.578;-0.066;2023-04-03T08:00:50;24.70;68.30
43183;DHT22;28802;38.578;-0.066;2023-04-03T08:03:16;24.90;69.60
43183;DHT22;28802;38.578;-0.066;2023-04-03T08:05:46;25.30;67.60
43183;DHT22;28802;38.578;-0.066;2023-04-03T08:08:14;26.10;67.00
43183;DHT22;28802;38.578;-0.066;2023-04-03T08:10:40;26.50;66.80
43183;DHT22;28802;38.578;-0.066;2023-04-03T08:13:06;26.10;67.00
43183;DHT22;28802;38.578;-0.066;2023-04-03T08:15:34;26.20;66.30
43183;DHT22;28802;38.578;-0.066;2023-04-03T08:18:01;26.40;66.10
43183;DHT22;28802;38.578;-0.066;2023-04-03T08:20:28;26.80;64.10
43183;DHT22;28802;38.578;-0.066;2023-04-03T08:22:54;26.50;63.60
43183;DHT22;28802;38.578;-0.066;2023-04-03T08:25:21;27.10;63.00
43183;DHT22;28802;38.578;-0.066;2023-04-03T08:27:46;27.30;62.10
43183;DHT22;28802;38.578;-0.066;2023-04-03T08:30:13;27.40;61.90
43183;DHT22;28802;38.578;-0.066;2023-04-03T08:32:39;27.30;59.70
43183;DHT22;28802;38.578;-0.066;2023-04-03T08:35:12;27.30;59.80
43183;DHT22;28802;38.578;-0.066;2023-04-03T08:37:39;27.90;59.20
43183;DHT22;28802;38.578;-0.066;2023-04-03T08:40:07;27.90;58.20
43183;DHT22;28802;38.578;-0.066;2023-04-03T08:45:51;28.70;57.10
43183;DHT22;28802;38.578;-0.066;2023-04-03T08:48:23;29.30;55.70
43183;DHT22;28802;38.578;-0.066;2023-04-03T08:50:59;29.60;55.60
43183;DHT22;28802;38.578;-0.066;2023-04-03T08:53:29;29.70;53.20
43183;DHT22;28802;38.578;-0.066;2023-04-03T08:55:58;29.20;52.90
43183;DHT22;28802;38.578;-0.066;2023-04-03T08:58:34;28.30;53.80
43183;DHT22;28802;38.578;-0.066;2023-04-03T09:01:20;28.20;56.40
43183;DHT22;28802;38.578;-0.066;2023-04-03T09:03:47;29.00;56.80
43183;DHT22;28802;38.578;-0.066;2023-04-03T09:06:13;29.80;52.50
43183;DHT22;28802;38.578;-0.066;2023-04-03T09:09:30;29.80;54.90
43183;DHT22;28802;38.578;-0.066;2023-04-03T09:11:54;29.20;55.60
43183;DHT22;28802;38.578;-0.066;2023-04-03T09:14:33;29.10;54.70
43183;DHT22;28802;38.578;-0.066;2023-04-03T09:17:13;28.40;56.40
43183;DHT22;28802;38.578;-0.066;2023-04-03T09:19:58;27.80;55.90
43183;DHT22;28802;38.578;-0.066;2023-04-03T09:22:31;26.20;59.30
43183;DHT22;28802;38.578;-0.066;2023-04-03T09:24:59;27.00;59.00
43183;DHT22;28802;38.578;-0.066;2023-04-03T09:27:27;25.20;59.40
43183;DHT22;28802;38.578;-0.066;2023-04-03T09:29:55;23.90;63.30
43183;DHT22;28802;38.578;-0.066;2023-04-03T09:32:27;23.90;61.90
43183;DHT22;28802;38.578;-0.066;2023-04-03T09:34:57;23.30;65.70
43183;DHT22;28802;38.578;-0.066;2023-04-03T09:37:43;23.30;69.00
43183;DHT22;28802;38.578;-0.066;2023-04-03T09:40:28;23.80;67.90
43183;DHT22;28802;38.578;-0.066;2023-04-03T09:42:57;24.10;65.20
43183;DHT22;28802;38.578;-0.066;2023-04-03T09:50:53;24.30;64.10
43183;DHT22;28802;38.578;-0.066;2023-04-03T09:53:36;23.80;62.20
43183;DHT22;28802;38.578;-0.066;2023-04-03T09:56:21;23.50;65.30
43183;DHT22;28802;38.578;-0.066;2023-04-03T09:59:08;24.40;66.30
43183;DHT22;28802;38.578;-0.066;2023-04-03T10:01:37;25.20;63.90
43183;DHT22;28802;38.578;-0.066;2023-04-03T10:04:39;25.20;65.20
43183;DHT22;28802;38.578;-0.066;2023-04-03T10:07:29;25.60;68.30
43183;DHT22;28802;38.578;-0.066;2023-04-03T10:09:58;25.90;67.50
43183;DHT22;28802;38.578;-0.066;2023-04-03T10:12:25;25.20;68.00
43183;DHT22;28802;38.578;-0.066;2023-04-03T10:15:10;24.70;69.70
43183;DHT22;28802;38.578;-0.066;2023-04-03T10:18:00;25.20;67.50
43183;DHT22;28802;38.578;-0.066;2023-04-03T10:23:17;24.50;62.90
43183;DHT22;28802;38.578;-0.066;2023-04-03T10:26:18;25.00;64.90
43183;DHT22;28802;38.578;-0.066;2023-04-03T10:58:02;24.10;76.80
43183;DHT22;28802;38.578;-0.066;2023-04-03T11:00:45;24.10;80.90
43183;DHT22;28802;38.578;-0.066;2023-04-03T11:03:45;21.50;94.00
43183;DHT22;28802;38.578;-0.066;2023-04-03T11:06:15;20.80;99.90
43183;DHT22;28802;38.578;-0.066;2023-04-03T11:11:34;19.80;99.90
43183;DHT22;28802;38.578;-0.066;2023-04-03T11:14:02;19.80;99.90
43183;DHT22;28802;38.578;-0.066;2023-04-03T11:16:33;20.00;99.90
43183;DHT22;28802;38.578;-0.066;2023-04-03T11:21:44;20.40;99.90
43183;DHT22;28802;38.578;-0.066;2023-04-03T11:24:20;20.70;99.90
43183;DHT22;28802;38.578;-0.066;2023-04-03T11:26:49;20.60;99.90
43183;DHT22;28802;38.578;-0.066;2023-04-03T11:29:24;21.00;99.90
43183;DHT22;28802;38.578;-0.066;2023-04-03T11:34:43;20.40;99.90
43183;DHT22;28802;38.578;-0.066;2023-04-03T11:37:16;19.80;99.90
43183;DHT22;28802;38.578;-0.066;2023-04-03T11:39:53;20.40;99.90
43183;DHT22;28802;38.578;-0.066;2023-04-03T11:45:31;21.10;99.90
43183;DHT22;28802;38.578;-0.066;2023-04-03T11:48:29;20.10;99.90
43183;DHT22;28802;38.578;-0.066;2023-04-03T11:50:47;19.20;99.90
43183;DHT22;28802;38.578;-0.066;2023-04-03T12:16:20;18.20;99.90
43183;DHT22;28802;38.578;-0.066;2023-04-03T12:18:55;18.60;99.90
43183;DHT22;28802;38.578;-0.066;2023-04-03T12:24:04;19.10;99.90
43183;DHT22;28802;38.578;-0.066;2023-04-03T12:29:24;18.90;99.90
43183;DHT22;28802;38.578;-0.066;2023-04-03T12:38:15;18.10;99.90
43183;DHT22;28802;38.578;-0.066;2023-04-03T12:41:01;17.80;99.90
43183;DHT22;28802;38.578;-0.066;2023-04-03T12:48:54;17.90;99.90
43183;DHT22;28802;38.578;-0.066;2023-04-03T12:51:42;17.40;99.90
43183;DHT22;28802;38.578;-0.066;2023-04-03T12:54:20;17.70;99.90
43183;DHT22;28802;38.578;-0.066;2023-04-03T12:56:48;17.30;99.90
43183;DHT22;28802;38.578;-0.066;2023-04-03T12:59:26;17.10;99.90
43183;DHT22;28802;38.578;-0.066;2023-04-03T13:01:59;16.90;99.90
43183;DHT22;28802;38.578;-0.066;2023-04-03T13:04:28;17.20;99.90
43183;DHT22;28802;38.578;-0.066;2023-04-03T13:06:55;17.50;99.90
43183;DHT22;28802;38.578;-0.066;2023-04-03T13:09:29;17.20;99.90
43183;DHT22;28802;38.578;-0.066;2023-04-03T13:14:25;16.80;99.90
43183;DHT22;28802;38.578;-0.066;2023-04-03T13:17:09;16.90;99.90
43183;DHT22;28802;38.578;-0.066;2023-04-03T13:19:36;17.00;99.90
43183;DHT22;28802;38.578;-0.066;2023-04-03T13:25:15;17.30;99.90
43183;DHT22;28802;38.578;-0.066;2023-04-03T13:27:42;17.10;99.90
43183;DHT22;28802;38.578;-0.066;2023-04-03T13:30:21;17.50;99.90
43183;DHT22;28802;38.578;-0.066;2023-04-03T13:32:48;17.20;99.90
43183;DHT22;28802;38.578;-0.066;2023-04-03T13:38:02;16.90;99.90
43183;DHT22;28802;38.578;-0.066;2023-04-03T13:40:29;16.60;99.90
43183;DHT22;28802;38.578;-0.066;2023-04-03T13:43:14;16.50;99.90
43183;DHT22;28802;38.578;-0.066;2023-04-03T13:46:39;16.60;99.90
43183;DHT22;28802;38.578;-0.066;2023-04-03T13:48:41;16.70;99.90
43183;DHT22;28802;38.578;-0.066;2023-04-03T13:53:47;16.80;99.90
43183;DHT22;28802;38.578;-0.066;2023-04-03T13:56:22;16.60;99.90
43183;DHT22;28802;38.578;-0.066;2023-04-03T13:59:05;16.30;99.90
43183;DHT22;28802;38.578;-0.066;2023-04-03T14:01:49;16.40;99.90
43183;DHT22;28802;38.578;-0.066;2023-04-03T14:04:23;16.60;99.90
43183;DHT22;28802;38.578;-0.066;2023-04-03T14:06:50;16.30;99.90
43183;DHT22;28802;38.578;-0.066;2023-04-03T14:09:18;16.30;99.90
43183;DHT22;28802;38.578;-0.066;2023-04-03T14:11:45;16.30;99.90
43183;DHT22;28802;38.578;-0.066;2023-04-03T14:14:15;16.50;99.90
43183;DHT22;28802;38.578;-0.066;2023-04-03T14:16:44;16.40;99.90
43183;DHT22;28802;38.578;-0.066;2023-04-03T14:19:27;16.10;99.90
43183;DHT22;28802;38.578;-0.066;2023-04-03T14:21:54;16.20;99.90
43183;DHT22;28802;38.578;-0.066;2023-04-03T14:24:22;16.10;99.90
43183;DHT22;28802;38.578;-0.066;2023-04-03T14:26:53;16.10;99.90
43183;DHT22;28802;38.578;-0.066;2023-04-03T14:29:21;16.30;99.90
43183;DHT22;28802;38.578;-0.066;2023-04-03T14:31:48;16.20;99.90
43183;DHT22;28802;38.578;-0.066;2023-04-03T14:34:15;16.30;99.90
43183;DHT22;28802;38.578;-0.066;2023-04-03T14:36:43;16.40;99.90
43183;DHT22;28802;38.578;-0.066;2023-04-03T14:39:17;16.20;99.90
43183;DHT22;28802;38.578;-0.066;2023-04-03T14:41:44;16.40;99.90
43183;DHT22;28802;38.578;-0.066;2023-04-03T14:44:10;16.10;99.90
43183;DHT22;28802;38.578;-0.066;2023-04-03T14:46:39;16.20;99.90
43183;DHT22;28802;38.578;-0.066;2023-04-03T14:49:18;16.10;99.90
43183;DHT22;28802;38.578;-0.066;2023-04-03T14:51:44;16.20;99.90
43183;DHT22;28802;38.578;-0.066;2023-04-03T14:54:20;15.90;99.90
43183;DHT22;28802;38.578;-0.066;2023-04-03T14:56:51;16.00;99.90
43183;DHT22;28802;38.578;-0.066;2023-04-03T14:59:18;15.90;99.90
43183;DHT22;28802;38.578;-0.066;2023-04-03T15:01:46;16.10;99.90
43183;DHT22;28802;38.578;-0.066;2023-04-03T15:04:18;16.00;99.90
43183;DHT22;28802;38.578;-0.066;2023-04-03T15:06:48;15.90;99.90
43183;DHT22;28802;38.578;-0.066;2023-04-03T15:09:25;16.00;99.90
43183;DHT22;28802;38.578;-0.066;2023-04-03T15:11:53;16.10;99.90
43183;DHT22;28802;38.578;-0.066;2023-04-03T15:14:20;16.20;99.90
43183;DHT22;28802;38.578;-0.066;2023-04-03T15:16:46;16.10;99.90
43183;DHT22;28802;38.578;-0.066;2023-04-03T15:19:13;16.20;99.90
43183;DHT22;28802;38.578;-0.066;2023-04-03T15:21:40;16.10;99.90
43183;DHT22;28802;38.578;-0.066;2023-04-03T15:24:06;16.10;99.90
43183;DHT22;28802;38.578;-0.066;2023-04-03T15:26:33;16.20;99.90
43183;DHT22;28802;38.578;-0.066;2023-04-03T15:28:59;16.10;99.90
43183;DHT22;28802;38.578;-0.066;2023-04-03T15:31:25;15.90;99.90
43183;DHT22;28802;38.578;-0.066;2023-04-03T15:33:51;15.90;99.90
43183;DHT22;28802;38.578;-0.066;2023-04-03T15:36:17;15.90;99.90
43183;DHT22;28802;38.578;-0.066;2023-04-03T15:38:43;15.80;99.90
43183;DHT22;28802;38.578;-0.066;2023-04-03T15:41:09;15.80;99.90
43183;DHT22;28802;38.578;-0.066;2023-04-03T15:43:35;15.80;99.90
43183;DHT22;28802;38.578;-0.066;2023-04-03T15:46:01;15.90;99.90
43183;DHT22;28802;38.578;-0.066;2023-04-03T15:48:28;15.90;99.90
43183;DHT22;28802;38.578;-0.066;2023-04-03T15:50:54;15.90;99.90
43183;DHT22;28802;38.578;-0.066;2023-04-03T15:53:20;15.90;99.90
43183;DHT22;28802;38.578;-0.066;2023-04-03T15:55:46;15.80;99.90
43183;DHT22;28802;38.578;-0.066;2023-04-03T15:58:12;15.80;99.90
43183;DHT22;28802;38.578;-0.066;2023-04-03T16:00:39;15.90;99.90
43183;DHT22;28802;38.578;-0.066;2023-04-03T16:03:10;16.10;99.90
43183;DHT22;28802;38.578;-0.066;2023-04-03T16:05:38;16.00;99.90
43183;DHT22;28802;38.578;-0.066;2023-04-03T16:08:05;15.80;99.90
43183;DHT22;28802;38.578;-0.066;2023-04-03T16:10:34;15.90;99.90
43183;DHT22;28802;38.578;-0.066;2023-04-03T16:13:00;16.00;99.90
43183;DHT22;28802;38.578;-0.066;2023-04-03T16:15:26;16.00;99.90
43183;DHT22;28802;38.578;-0.066;2023-04-03T16:17:53;16.10;99.90
43183;DHT22;28802;38.578;-0.066;2023-04-03T16:20:20;16.10;99.90
43183;DHT22;28802;38.578;-0.066;2023-04-03T16:22:48;16.30;99.90
43183;DHT22;28802;38.578;-0.066;2023-04-03T16:25:14;16.10;99.90
43183;DHT22;28802;38.578;-0.066;2023-04-03T16:27:40;15.90;99.90
43183;DHT22;28802;38.578;-0.066;2023-04-03T16:30:07;15.90;99.90
43183;DHT22;28802;38.578;-0.066;2023-04-03T16:32:33;15.80;99.90
43183;DHT22;28802;38.578;-0.066;2023-04-03T16:35:00;15.50;99.90
43183;DHT22;28802;38.578;-0.066;2023-04-03T16:37:26;15.30;99.90
43183;DHT22;28802;38.578;-0.066;2023-04-03T16:39:52;15.30;99.90
43183;DHT22;28802;38.578;-0.066;2023-04-03T16:42:18;15.30;99.90
43183;DHT22;28802;38.578;-0.066;2023-04-03T16:44:45;15.40;99.90
43183;DHT22;28802;38.578;-0.066;2023-04-03T16:47:11;15.50;99.90
43183;DHT22;28802;38.578;-0.066;2023-04-03T16:49:39;15.40;99.90
43183;DHT22;28802;38.578;-0.066;2023-04-03T16:52:05;15.50;99.90
43183;DHT22;28802;38.578;-0.066;2023-04-03T16:54:32;15.40;99.90
43183;DHT22;28802;38.578;-0.066;2023-04-03T16:56:58;15.60;99.90
43183;DHT22;28802;38.578;-0.066;2023-04-03T16:59:24;15.60;99.90
43183;DHT22;28802;38.578;-0.066;2023-04-03T17:01:50;15.60;99.90
43183;DHT22;28802;38.578;-0.066;2023-04-03T17:04:16;15.60;99.90
43183;DHT22;28802;38.578;-0.066;2023-04-03T17:06:42;15.70;99.90
43183;DHT22;28802;38.578;-0.066;2023-04-03T17:09:08;15.60;99.90
43183;DHT22;28802;38.578;-0.066;2023-04-03T17:11:35;15.40;99.90
43183;DHT22;28802;38.578;-0.066;2023-04-03T17:14:01;15.40;99.90
43183;DHT22;28802;38.578;-0.066;2023-04-03T17:16:29;15.50;99.90
43183;DHT22;28802;38.578;-0.066;2023-04-03T17:18:56;15.60;99.90